createdAt,value
2018-03-24T00:01:21.292Z,31.80
2018-03-24T00:03:49.116Z,31.70
2018-03-24T00:06:16.916Z,32.33
2018-03-24T00:08:44.764Z,33.00
2018-03-24T00:11:13.179Z,34.17
2018-03-24T00:13:40.926Z,35.27
2018-03-24T00:16:08.587Z,34.70
2018-03-24T00:18:36.250Z,32.97
2018-03-24T00:21:04.085Z,33.97
2018-03-24T00:23:31.798Z,33.33
2018-03-24T00:25:59.496Z,34.23
2018-03-24T00:28:27.216Z,33.53
2018-03-24T00:30:54.971Z,33.53
2018-03-24T00:33:22.746Z,35.30
2018-03-24T00:35:50.397Z,34.60
2018-03-24T00:38:18.124Z,34.50
2018-03-24T00:40:45.794Z,33.67
2018-03-24T00:43:14.254Z,34.43
2018-03-24T00:45:42.001Z,34.93
2018-03-24T00:48:09.657Z,37.37
2018-03-24T00:50:37.259Z,35.50
2018-03-24T00:53:05.736Z,37.63
2018-03-24T00:55:34.169Z,37.90
2018-03-24T00:58:01.846Z,42.40
2018-03-24T01:00:29.574Z,42.83
2018-03-24T01:02:57.324Z,49.53
2018-03-24T01:05:25.047Z,51.47
2018-03-24T01:07:53.493Z,46.90
2018-03-24T01:10:21.125Z,45.50
2018-03-24T01:12:48.833Z,41.17
2018-03-24T01:15:16.750Z,39.97
2018-03-24T01:17:45.237Z,37.20
2018-03-24T01:20:12.881Z,36.17
2018-03-24T01:22:42.547Z,34.10
2018-03-24T01:25:10.214Z,35.50
2018-03-24T01:27:37.914Z,34.70
2018-03-24T01:30:06.518Z,34.53
2018-03-24T01:32:34.320Z,33.80
2018-03-24T01:35:02.045Z,33.53
2018-03-24T01:37:29.700Z,34.30
2018-03-24T01:39:57.338Z,34.50
2018-03-24T01:42:25.873Z,34.70
2018-03-24T01:44:53.696Z,34.13
2018-03-24T01:47:22.161Z,34.97
2018-03-24T01:49:49.809Z,35.43
2018-03-24T01:52:17.513Z,33.20
2018-03-24T01:54:45.197Z,33.80
2018-03-24T01:57:13.365Z,34.43
2018-03-24T01:59:41.028Z,35.10
2018-03-24T02:02:08.810Z,33.53
2018-03-24T02:04:36.499Z,32.50
2018-03-24T02:07:04.150Z,34.53
2018-03-24T02:09:31.913Z,34.10
2018-03-24T02:11:59.566Z,34.63
2018-03-24T02:14:27.279Z,36.10
2018-03-24T02:16:55.711Z,36.23
2018-03-24T02:19:23.424Z,35.33
2018-03-24T02:21:51.086Z,35.30
2018-03-24T02:24:18.772Z,35.73
2018-03-24T02:26:46.495Z,32.70
2018-03-24T02:29:15.231Z,34.67
2018-03-24T02:31:42.920Z,33.10
2018-03-24T02:34:10.679Z,34.57
2018-03-24T02:36:38.368Z,35.50
2018-03-24T02:39:06.069Z,34.60
2018-03-24T02:41:33.818Z,35.33
2018-03-24T02:44:01.677Z,34.60
2018-03-24T02:46:30.221Z,36.87
2018-03-24T02:48:57.908Z,35.73
2018-03-24T02:51:26.348Z,34.60
2018-03-24T02:53:54.040Z,35.30
2018-03-24T02:56:22.432Z,35.90
2018-03-24T02:58:50.944Z,36.27
2018-03-24T03:01:19.532Z,38.43
2018-03-24T03:03:47.176Z,38.23
2018-03-24T03:06:14.902Z,37.63
2018-03-24T03:08:42.596Z,39.60
2018-03-24T03:11:10.277Z,37.43
2018-03-24T03:13:37.981Z,36.87
2018-03-24T03:16:05.745Z,37.97
2018-03-24T03:18:33.438Z,37.07
2018-03-24T03:21:01.990Z,39.63
2018-03-24T03:23:29.660Z,37.40
2018-03-24T03:25:57.316Z,38.97
2018-03-24T03:28:24.993Z,38.07
2018-03-24T03:31:08.164Z,40.97
2018-03-24T03:33:36.130Z,41.83
2018-03-24T03:36:03.768Z,41.07
2018-03-24T03:38:31.431Z,41.07
2018-03-24T03:40:59.140Z,41.57
2018-03-24T03:43:26.897Z,42.17
2018-03-24T03:45:54.611Z,41.90
2018-03-24T03:48:22.356Z,41.43
2018-03-24T03:50:50.129Z,43.70
2018-03-24T03:53:18.575Z,43.67
2018-03-24T03:55:46.272Z,43.27
2018-03-24T03:58:14.453Z,44.57
2018-03-24T04:00:42.859Z,42.93
2018-03-24T04:03:10.493Z,44.83
2018-03-24T04:05:38.987Z,43.17
2018-03-24T04:08:06.699Z,46.70
2018-03-24T04:10:34.346Z,46.83
2018-03-24T04:13:03.332Z,47.83
2018-03-24T04:15:31.069Z,48.40
2018-03-24T04:17:58.837Z,54.37
2018-03-24T04:20:26.540Z,51.03
2018-03-24T04:22:54.199Z,51.77
2018-03-24T04:25:21.871Z,50.27
2018-03-24T04:27:49.519Z,54.50
2018-03-24T04:30:17.353Z,53.93
2018-03-24T04:32:45.015Z,52.10
2018-03-24T04:35:12.675Z,56.80
2018-03-24T04:37:40.593Z,52.73
2018-03-24T04:40:08.342Z,60.23
2018-03-24T04:42:36.159Z,73.00
2018-03-24T04:45:03.779Z,59.23
2018-03-24T04:47:32.276Z,61.87
2018-03-24T04:49:59.933Z,65.60
2018-03-24T04:52:27.625Z,74.80
2018-03-24T04:54:55.277Z,58.10
2018-03-24T04:57:22.948Z,62.07
2018-03-24T04:59:50.703Z,60.70
2018-03-24T05:02:18.501Z,49.57
2018-03-24T05:04:46.315Z,52.17
2018-03-24T05:07:13.971Z,42.70
2018-03-24T05:09:42.104Z,53.67
2018-03-24T05:12:09.751Z,43.23
2018-03-24T05:14:37.431Z,54.70
2018-03-24T05:17:05.157Z,43.87
2018-03-24T05:19:33.024Z,51.03
2018-03-24T05:22:00.780Z,55.00
2018-03-24T05:24:28.423Z,55.40
2018-03-24T05:26:56.875Z,47.97
2018-03-24T05:29:25.512Z,60.57
2018-03-24T05:31:53.451Z,50.67
2018-03-24T05:34:21.334Z,51.23
2018-03-24T05:36:49.770Z,46.23
2018-03-24T05:39:17.461Z,51.20
2018-03-24T05:41:45.883Z,63.53
2018-03-24T05:44:13.705Z,55.63
2018-03-24T05:46:41.361Z,50.13
2018-03-24T05:49:09.061Z,46.23
2018-03-24T05:51:36.827Z,50.10
2018-03-24T05:54:04.453Z,42.27
2018-03-24T05:56:32.880Z,52.40
2018-03-24T05:59:00.657Z,47.97
2018-03-24T06:01:28.346Z,50.03
2018-03-24T06:03:56.763Z,44.27
2018-03-24T06:06:24.451Z,43.20
2018-03-24T06:08:52.305Z,43.70
2018-03-24T06:11:20.025Z,47.20
2018-03-24T06:13:48.468Z,44.97
2018-03-24T06:16:17.300Z,45.87
2018-03-24T06:18:45.776Z,38.97
2018-03-24T06:21:13.442Z,43.77
2018-03-24T06:23:41.843Z,40.87
2018-03-24T06:26:09.577Z,39.27
2018-03-24T06:28:37.264Z,38.23
2018-03-24T06:31:06.898Z,37.30
2018-03-24T06:33:34.582Z,38.13
2018-03-24T06:36:02.462Z,37.40
2018-03-24T06:38:30.121Z,37.00
2018-03-24T06:40:57.928Z,35.77
2018-03-24T06:43:25.584Z,35.97
2018-03-24T06:45:53.204Z,36.67
2018-03-24T06:48:22.076Z,37.70
2018-03-24T06:50:49.704Z,38.30
2018-03-24T06:53:17.376Z,34.87
2018-03-24T06:55:46.199Z,33.47
2018-03-24T06:58:13.882Z,33.97
2018-03-24T07:00:42.308Z,30.23
2018-03-24T07:03:09.972Z,31.53
2018-03-24T07:05:37.650Z,30.57
2018-03-24T07:08:05.303Z,31.07
2018-03-24T07:10:33.028Z,29.10
2018-03-24T07:13:01.417Z,28.13
2018-03-24T07:15:29.042Z,28.13
2018-03-24T07:17:56.732Z,27.63
2018-03-24T07:20:25.961Z,26.93
2018-03-24T07:22:53.592Z,28.53
2018-03-24T07:25:21.238Z,30.00
2018-03-24T07:27:48.887Z,27.40
2018-03-24T07:30:16.623Z,26.83
2018-03-24T07:32:44.331Z,26.73
2018-03-24T07:35:12.000Z,26.13
2018-03-24T07:37:39.823Z,24.40
2018-03-24T07:40:07.486Z,23.97
2018-03-24T07:42:35.169Z,25.73
2018-03-24T07:45:02.792Z,24.17
2018-03-24T07:47:30.511Z,26.23
2018-03-24T07:49:58.178Z,26.10
2018-03-24T07:52:25.808Z,25.07
2018-03-24T07:54:53.480Z,25.90
2018-03-24T07:57:21.380Z,26.73
2018-03-24T07:59:49.101Z,25.50
2018-03-24T08:02:16.737Z,25.10
2018-03-24T08:04:44.666Z,23.97
2018-03-24T08:07:12.388Z,26.00
2018-03-24T08:09:40.200Z,26.27
2018-03-24T08:12:07.797Z,27.43
2018-03-24T08:14:35.442Z,26.10
2018-03-24T08:17:03.182Z,26.67
2018-03-24T08:19:30.869Z,26.63
2018-03-24T08:21:58.594Z,27.30
2018-03-24T08:24:26.318Z,26.57
2018-03-24T08:26:53.975Z,26.03
2018-03-24T08:29:21.655Z,26.80
2018-03-24T08:31:49.294Z,26.90
2018-03-24T08:34:16.941Z,28.80
2018-03-24T08:36:44.705Z,26.47
2018-03-24T08:39:12.431Z,27.83
2018-03-24T08:41:40.929Z,25.90
2018-03-24T08:44:08.586Z,25.97
2018-03-24T08:46:36.353Z,27.80
2018-03-24T08:49:04.000Z,27.17
2018-03-24T08:51:31.748Z,26.83
2018-03-24T08:54:00.205Z,26.30
2018-03-24T08:56:27.948Z,26.47
2018-03-24T08:58:55.643Z,26.97
2018-03-24T09:01:23.595Z,26.60
2018-03-24T09:03:51.350Z,26.60
2018-03-24T09:06:19.011Z,26.83
2018-03-24T09:08:46.740Z,26.50
2018-03-24T09:11:14.324Z,26.17
2018-03-24T09:13:42.061Z,26.23
2018-03-24T09:16:09.719Z,27.60
2018-03-24T09:18:37.461Z,28.00
2018-03-24T09:21:07.086Z,26.93
2018-03-24T09:23:34.964Z,27.80
2018-03-24T09:26:02.682Z,26.67
2018-03-24T09:28:30.437Z,25.53
2018-03-24T09:30:58.349Z,27.60
2018-03-24T09:33:26.008Z,25.03
2018-03-24T09:35:53.701Z,25.03
2018-03-24T09:38:21.412Z,25.23
2018-03-24T09:40:49.846Z,24.77
2018-03-24T09:43:18.534Z,25.87
2018-03-24T09:45:46.259Z,23.17
2018-03-24T09:48:14.064Z,22.50
2018-03-24T09:50:41.771Z,22.60
2018-03-24T09:53:09.463Z,21.50
2018-03-24T09:55:37.219Z,23.00
2018-03-24T09:58:05.885Z,22.63
2018-03-24T10:00:33.561Z,22.90
2018-03-24T10:03:01.502Z,22.70
2018-03-24T10:05:29.157Z,23.27
2018-03-24T10:07:56.891Z,21.87
2018-03-24T10:10:25.220Z,22.90
2018-03-24T10:12:52.893Z,23.03
2018-03-24T10:15:20.627Z,21.53
2018-03-24T10:17:48.314Z,21.40
2018-03-24T10:20:16.044Z,23.10
2018-03-24T10:22:55.323Z,22.20
2018-03-24T10:25:23.000Z,22.83
2018-03-24T10:27:50.657Z,21.53
2018-03-24T10:30:18.419Z,21.20
2018-03-24T10:32:46.128Z,22.00
2018-03-24T10:35:13.814Z,21.57
2018-03-24T10:37:47.032Z,22.43
2018-03-24T10:40:14.669Z,20.97
2018-03-24T10:45:42.394Z,23.97
2018-03-24T10:48:10.124Z,23.43
2018-03-24T10:50:37.811Z,25.97
2018-03-24T10:53:05.881Z,24.50
2018-03-24T10:55:33.576Z,25.73
2018-03-24T10:58:01.347Z,26.90
2018-03-24T11:00:32.944Z,27.03
2018-03-24T11:03:00.745Z,27.17
2018-03-24T11:05:28.431Z,28.70
2018-03-24T11:07:56.092Z,27.10
2018-03-24T11:10:23.759Z,27.37
2018-03-24T11:12:51.628Z,24.63
2018-03-24T11:15:20.150Z,25.40
2018-03-24T11:17:47.847Z,25.67
2018-03-24T11:20:15.639Z,26.27
2018-03-24T11:22:43.550Z,24.80
2018-03-24T11:25:11.202Z,26.23
2018-03-24T11:27:38.917Z,24.57
2018-03-24T11:30:06.694Z,26.10
2018-03-24T11:32:34.377Z,25.20
2018-03-24T11:35:02.106Z,26.77
2018-03-24T11:37:30.155Z,27.17
2018-03-24T11:39:57.854Z,25.80
2018-03-24T11:42:31.016Z,27.07
2018-03-24T11:44:58.814Z,24.77
2018-03-24T11:47:27.188Z,23.13
2018-03-24T11:49:54.816Z,22.20
2018-03-24T11:52:22.639Z,22.00
2018-03-24T11:54:50.525Z,22.50
2018-03-24T11:57:18.739Z,22.53
2018-03-24T11:59:46.427Z,21.37
2018-03-24T12:02:14.239Z,20.37
2018-03-24T12:04:41.954Z,18.00
2018-03-24T12:07:12.053Z,19.37
2018-03-24T12:09:40.544Z,20.93
2018-03-24T12:12:08.990Z,19.23
2018-03-24T12:14:36.658Z,19.63
2018-03-24T12:17:04.298Z,19.40
2018-03-24T12:19:32.074Z,19.60
2018-03-24T12:21:59.804Z,21.00
2018-03-24T12:24:27.449Z,21.03
2018-03-24T12:26:55.741Z,21.20
2018-03-24T12:29:23.495Z,19.77
2018-03-24T12:31:51.176Z,19.53
2018-03-24T12:34:19.443Z,18.87
2018-03-24T12:36:47.402Z,18.63
2018-03-24T12:39:15.044Z,19.90
2018-03-24T12:41:43.507Z,21.50
2018-03-24T12:44:11.930Z,19.57
2018-03-24T12:46:39.640Z,21.10
2018-03-24T12:49:07.528Z,20.73
2018-03-24T12:51:35.406Z,19.67
2018-03-24T12:54:03.151Z,17.87
2018-03-24T12:56:32.384Z,17.40
2018-03-24T12:59:00.148Z,18.07
2018-03-24T13:01:27.844Z,18.27
2018-03-24T13:03:55.706Z,18.03
2018-03-24T13:06:23.470Z,19.30
2018-03-24T13:08:51.396Z,17.77
2018-03-24T13:11:19.134Z,17.17
2018-03-24T13:13:47.818Z,16.33
2018-03-24T13:16:15.708Z,18.23
2018-03-24T13:18:43.412Z,18.23
2018-03-24T13:21:11.141Z,17.20
2018-03-24T13:23:38.805Z,17.40
2018-03-24T13:26:06.500Z,17.83
2018-03-24T13:28:34.170Z,17.60
2018-03-24T13:31:01.849Z,16.93
2018-03-24T13:33:31.256Z,17.10
2018-03-24T13:35:59.155Z,18.03
2018-03-24T13:38:26.808Z,16.73
2018-03-24T13:40:54.556Z,16.23
2018-03-24T13:43:23.267Z,15.70
2018-03-24T13:45:50.972Z,16.10
2018-03-24T13:48:18.632Z,16.87
2018-03-24T13:50:47.460Z,17.00
2018-03-24T13:53:15.139Z,17.33
2018-03-24T13:55:42.800Z,16.57
2018-03-24T13:58:10.557Z,17.00
2018-03-24T14:00:39.439Z,18.57
2018-03-24T14:03:08.015Z,17.80
2018-03-24T14:05:36.501Z,17.33
2018-03-24T14:08:04.944Z,17.93
2018-03-24T14:10:32.702Z,16.10
2018-03-24T14:13:00.449Z,16.30
2018-03-24T14:15:28.749Z,16.20
2018-03-24T14:17:56.461Z,17.00
2018-03-24T14:20:24.944Z,17.27
2018-03-24T14:22:52.656Z,17.87
2018-03-24T14:25:20.420Z,15.93
2018-03-24T14:27:48.186Z,17.20
2018-03-24T14:30:15.872Z,18.33
2018-03-24T14:32:44.369Z,17.13
2018-03-24T14:35:12.227Z,17.20
2018-03-24T14:37:40.702Z,18.40
2018-03-24T14:40:09.184Z,17.60
2018-03-24T14:42:39.411Z,17.80
2018-03-24T14:45:07.068Z,17.17
2018-03-24T14:47:34.741Z,17.00
2018-03-24T14:50:02.500Z,16.70
2018-03-24T14:52:30.186Z,16.57
2018-03-24T14:54:57.869Z,15.90
2018-03-24T14:57:25.624Z,17.53
2018-03-24T14:59:53.344Z,16.37
2018-03-24T15:02:21.054Z,15.90
2018-03-24T15:04:48.691Z,16.73
2018-03-24T15:07:16.964Z,16.40
2018-03-24T15:09:44.655Z,15.90
2018-03-24T15:12:12.639Z,16.70
2018-03-24T15:14:40.320Z,15.70
2018-03-24T15:17:08.125Z,17.03
2018-03-24T15:19:35.866Z,17.57
2018-03-24T15:22:03.953Z,16.57
2018-03-24T15:24:32.558Z,17.90
2018-03-24T15:27:01.628Z,16.63
2018-03-24T15:29:43.321Z,18.03
2018-03-24T15:32:23.878Z,17.10
2018-03-24T15:35:03.259Z,16.40
2018-03-24T15:37:30.975Z,17.47
2018-03-24T15:39:58.737Z,15.70
2018-03-24T15:42:26.433Z,16.80
2018-03-24T15:44:54.398Z,16.33
2018-03-24T15:47:22.106Z,17.30
2018-03-24T15:52:37.093Z,15.93
2018-03-24T15:55:05.538Z,15.67
2018-03-24T15:57:33.182Z,16.83
2018-03-24T16:00:00.879Z,15.70
2018-03-24T16:02:28.563Z,16.83
2018-03-24T16:04:56.961Z,15.57
2018-03-24T16:07:26.434Z,15.63
2018-03-24T16:09:54.130Z,15.97
2018-03-24T16:12:22.223Z,16.00
2018-03-24T16:14:49.897Z,16.33
2018-03-24T16:17:18.793Z,15.87
2018-03-24T16:19:46.456Z,16.80
2018-03-24T16:22:14.688Z,15.20
2018-03-24T16:24:42.369Z,16.00
2018-03-24T16:27:10.185Z,16.10
2018-03-24T16:29:38.041Z,16.97
2018-03-24T16:32:06.586Z,16.30
2018-03-24T16:34:34.446Z,14.87
2018-03-24T16:37:02.099Z,15.50
2018-03-24T16:39:29.767Z,15.73
2018-03-24T16:41:57.611Z,15.47
2018-03-24T16:44:26.130Z,15.40
2018-03-24T16:46:53.868Z,15.60
2018-03-24T16:49:21.575Z,15.10
2018-03-24T16:51:49.362Z,14.37
2018-03-24T16:54:17.019Z,16.17
2018-03-24T16:56:45.456Z,15.33
2018-03-24T16:59:13.208Z,14.37
2018-03-24T17:01:41.216Z,15.60
2018-03-24T17:04:09.800Z,15.47
2018-03-24T17:06:39.020Z,16.10
2018-03-24T17:09:07.533Z,14.23
2018-03-24T17:11:35.515Z,15.73
2018-03-24T17:14:03.657Z,15.53
2018-03-24T17:16:31.407Z,14.63
2018-03-24T17:18:59.375Z,16.10
2018-03-24T17:21:27.885Z,16.30
2018-03-24T17:23:55.598Z,15.37
2018-03-24T17:26:23.317Z,14.27
2018-03-24T17:28:51.088Z,17.07
2018-03-24T17:31:19.632Z,17.53
2018-03-24T17:33:48.083Z,17.37
2018-03-24T17:36:15.841Z,17.57
2018-03-24T17:38:43.723Z,18.13
2018-03-24T17:41:12.236Z,17.90
2018-03-24T17:43:40.857Z,16.40
2018-03-24T17:46:08.566Z,16.77
2018-03-24T17:48:37.183Z,15.93
2018-03-24T17:51:06.107Z,17.40
2018-03-24T17:53:33.877Z,15.87
2018-03-24T17:56:02.075Z,17.47
2018-03-24T17:58:29.887Z,16.20
2018-03-24T18:00:57.704Z,16.00
2018-03-24T18:03:26.263Z,17.77
2018-03-24T18:05:55.401Z,17.67
2018-03-24T18:08:23.152Z,17.37
2018-03-24T18:10:51.740Z,18.00
2018-03-24T18:13:19.957Z,17.57
2018-03-24T18:15:47.739Z,17.17
2018-03-24T18:18:15.660Z,19.07
2018-03-24T18:20:43.387Z,17.33
2018-03-24T18:23:11.280Z,17.80
2018-03-24T18:25:40.037Z,17.07
2018-03-24T18:28:07.866Z,17.30
2018-03-24T18:30:35.856Z,18.37
2018-03-24T18:33:03.734Z,18.90
2018-03-24T18:35:31.781Z,18.70
2018-03-24T18:38:00.387Z,18.83
2018-03-24T18:40:28.219Z,19.07
2018-03-24T18:42:55.949Z,19.73
2018-03-24T18:45:23.788Z,22.42
2018-03-24T18:47:51.485Z,20.83
2018-03-24T18:50:19.256Z,20.43
2018-03-24T18:52:47.076Z,20.27
2018-03-24T18:55:15.103Z,20.70
2018-03-24T18:57:42.780Z,53.30
2018-03-24T19:00:11.486Z,21.60
2018-03-24T19:02:39.361Z,22.13
2018-03-24T19:05:07.210Z,22.37
2018-03-24T19:07:35.739Z,22.30
2018-03-24T19:10:04.265Z,21.37
2018-03-24T19:12:32.552Z,21.63
2018-03-24T19:15:00.569Z,22.73
2018-03-24T19:17:29.226Z,23.73
2018-03-24T19:19:57.483Z,22.90
2018-03-24T19:22:26.143Z,24.30
2018-03-24T19:24:54.693Z,24.57
2018-03-24T19:27:23.042Z,24.53
2018-03-24T19:29:50.946Z,26.80
2018-03-24T19:32:18.749Z,24.97
2018-03-24T19:34:46.635Z,25.20
2018-03-24T19:37:15.151Z,24.33
2018-03-24T19:39:46.508Z,22.07
2018-03-24T19:42:15.443Z,23.67
2018-03-24T19:44:45.545Z,24.97
2018-03-24T19:47:13.772Z,23.93
2018-03-24T19:49:42.167Z,22.70
2018-03-24T19:52:11.438Z,23.70
2018-03-24T19:54:39.676Z,23.73
2018-03-24T19:57:07.627Z,24.20
2018-03-24T19:59:37.281Z,26.17
2018-03-24T20:02:07.446Z,24.80
2018-03-24T20:04:35.499Z,26.47
2018-03-24T20:07:04.850Z,26.13
2018-03-24T20:09:34.526Z,25.90
2018-03-24T20:12:03.940Z,26.70
2018-03-24T20:14:31.607Z,25.83
2018-03-24T20:17:01.423Z,25.67
2018-03-24T20:19:29.096Z,25.53
2018-03-24T20:21:58.402Z,24.57
2018-03-24T20:24:26.329Z,26.53
2018-03-24T20:26:54.201Z,24.97
2018-03-24T20:29:22.246Z,24.40
2018-03-24T20:31:51.710Z,26.20
2018-03-24T20:34:20.298Z,25.90
2018-03-24T20:36:48.066Z,25.40
2018-03-24T20:39:16.823Z,25.77
2018-03-24T20:41:44.574Z,27.27
2018-03-24T20:44:13.858Z,25.97
2018-03-24T20:46:41.694Z,26.07
2018-03-24T20:49:10.406Z,26.67
2018-03-24T20:51:42.737Z,26.97
2018-03-24T20:54:10.730Z,26.17
2018-03-24T20:56:39.302Z,24.57
2018-03-24T20:59:08.742Z,24.47
2018-03-24T21:01:36.669Z,24.47
2018-03-24T21:04:04.981Z,22.00
2018-03-24T21:06:32.781Z,23.00
2018-03-24T21:09:02.403Z,23.67
2018-03-24T21:11:30.342Z,23.33
2018-03-24T21:13:58.063Z,23.73
2018-03-24T21:16:26.483Z,24.60
2018-03-24T21:18:54.518Z,21.73
2018-03-24T21:21:22.972Z,23.50
2018-03-24T21:23:50.989Z,23.83
2018-03-24T21:26:18.733Z,23.17
2018-03-24T21:28:47.462Z,23.83
2018-03-24T21:31:16.551Z,23.23
2018-03-24T21:33:44.285Z,24.03
2018-03-24T21:36:12.866Z,22.30
2018-03-24T21:38:41.360Z,25.07
2018-03-24T21:41:09.136Z,22.53
2018-03-24T21:43:37.262Z,24.93
2018-03-24T21:46:06.605Z,23.20
2018-03-24T21:48:34.361Z,23.13
2018-03-24T21:51:02.040Z,23.70
2018-03-24T21:53:29.705Z,23.03
2018-03-24T21:55:57.356Z,23.93
2018-03-24T21:58:25.192Z,23.10
2018-03-24T22:00:53.655Z,24.80
2018-03-24T22:03:21.800Z,26.30
2018-03-24T22:05:49.540Z,25.70
2018-03-24T22:08:17.300Z,24.30
2018-03-24T22:10:45.208Z,25.03
2018-03-24T22:13:13.820Z,26.43
2018-03-24T22:15:41.567Z,25.13
2018-03-24T22:18:10.005Z,23.70
2018-03-24T22:20:37.683Z,25.07
2018-03-24T22:23:05.320Z,25.33
2018-03-24T22:25:33.199Z,26.10
2018-03-24T22:28:01.021Z,24.07
2018-03-24T22:30:28.922Z,23.17
2018-03-24T22:32:56.820Z,24.07
2018-03-24T22:35:24.867Z,24.63
2018-03-24T22:37:53.492Z,23.80
2018-03-24T22:40:21.171Z,25.37
2018-03-24T22:42:49.765Z,25.40
2018-03-24T22:45:18.484Z,24.70
2018-03-24T22:47:46.208Z,72.17
2018-03-24T22:50:15.039Z,24.73
2018-03-24T22:52:42.717Z,24.37
2018-03-24T22:55:11.313Z,23.87
2018-03-24T22:57:38.991Z,24.60
2018-03-24T23:00:07.463Z,25.30
2018-03-24T23:02:35.155Z,24.57
2018-03-24T23:05:02.841Z,24.80
2018-03-24T23:07:30.536Z,23.87
2018-03-24T23:09:58.991Z,25.00
2018-03-24T23:12:26.669Z,24.63
2018-03-24T23:14:54.588Z,29.17
2018-03-24T23:17:23.628Z,35.20
2018-03-24T23:19:52.194Z,28.20
2018-03-24T23:22:21.352Z,28.53
2018-03-24T23:24:49.973Z,27.53
2018-03-24T23:27:17.616Z,26.73
2018-03-24T23:29:46.785Z,25.70
2018-03-24T23:32:15.208Z,25.70
2018-03-24T23:34:42.901Z,24.97
2018-03-24T23:37:10.552Z,24.40
2018-03-24T23:39:38.386Z,25.23
2018-03-24T23:42:06.145Z,26.27
2018-03-24T23:44:34.077Z,31.33
2018-03-24T23:47:02.148Z,29.73
2018-03-24T23:49:29.822Z,33.37
2018-03-24T23:51:58.308Z,26.43
2018-03-24T23:54:26.862Z,26.97
2018-03-24T23:56:55.741Z,25.53
2018-03-24T23:59:24.377Z,26.37
